createdAt,value
2023-02-14T00:00:16.606Z,0.00
2023-02-14T00:01:16.549Z,0.00
2023-02-14T00:02:16.526Z,0.00
2023-02-14T00:03:16.530Z,0.00
2023-02-14T00:04:16.538Z,0.00
2023-02-14T00:05:16.532Z,0.00
2023-02-14T00:06:16.448Z,0.00
2023-02-14T00:07:16.434Z,0.00
2023-02-14T00:08:16.443Z,0.00
2023-02-14T00:09:16.393Z,0.00
2023-02-14T00:10:16.380Z,0.00
2023-02-14T00:11:16.362Z,0.00
2023-02-14T00:12:16.357Z,0.00
2023-02-14T00:13:16.328Z,0.00
2023-02-14T00:14:16.356Z,0.00
2023-02-14T00:15:16.298Z,0.00
2023-02-14T00:16:16.350Z,0.00
2023-02-14T00:17:16.240Z,0.00
2023-02-14T00:18:17.951Z,0.00
2023-02-14T00:19:16.200Z,0.00
2023-02-14T00:20:16.206Z,0.00
2023-02-14T00:21:16.166Z,0.00
2023-02-14T00:22:16.153Z,0.00
2023-02-14T00:23:16.116Z,0.00
2023-02-14T00:24:16.100Z,0.00
2023-02-14T00:25:16.105Z,0.00
2023-02-14T00:26:16.104Z,0.00
2023-02-14T00:27:16.045Z,0.00
2023-02-14T00:28:16.029Z,0.00
2023-02-14T00:29:16.007Z,0.00
2023-02-14T00:30:16.022Z,0.00
2023-02-14T00:31:16.073Z,0.00
2023-02-14T00:32:16.026Z,0.00
2023-02-14T00:33:16.009Z,0.00
2023-02-14T00:34:15.917Z,0.00
2023-02-14T00:35:15.883Z,0.00
2023-02-14T00:36:15.857Z,0.00
2023-02-14T00:37:15.868Z,0.00
2023-02-14T00:38:15.846Z,0.00
2023-02-14T00:39:15.812Z,0.00
2023-02-14T00:40:15.779Z,0.00
2023-02-14T00:41:15.797Z,0.00
2023-02-14T00:42:15.756Z,0.00
2023-02-14T00:43:15.728Z,0.00
2023-02-14T00:44:15.697Z,0.00
2023-02-14T00:45:15.681Z,0.00
2023-02-14T00:46:15.756Z,0.00
2023-02-14T00:47:15.667Z,0.00
2023-02-14T00:48:15.624Z,0.00
2023-02-14T00:49:15.607Z,0.00
2023-02-14T00:50:15.584Z,0.00
2023-02-14T00:51:15.589Z,0.00
2023-02-14T00:52:15.540Z,0.00
2023-02-14T00:53:15.571Z,0.00
2023-02-14T00:54:15.506Z,0.00
2023-02-14T00:55:15.487Z,0.00
2023-02-14T00:56:15.518Z,0.00
2023-02-14T00:57:15.449Z,0.00
2023-02-14T00:58:15.423Z,0.00
2023-02-14T00:59:15.405Z,0.00
2023-02-14T01:00:15.389Z,0.00
2023-02-14T01:01:15.413Z,0.00
2023-02-14T01:02:15.366Z,0.00
2023-02-14T01:03:15.324Z,0.00
2023-02-14T01:04:15.298Z,0.00
2023-02-14T01:05:15.352Z,0.00
2023-02-14T01:06:15.264Z,0.00
2023-02-14T01:07:15.240Z,0.00
2023-02-14T01:08:15.222Z,0.00
2023-02-14T01:09:15.204Z,0.00
2023-02-14T01:10:15.186Z,0.00
2023-02-14T01:11:15.195Z,0.00
2023-02-14T01:12:15.142Z,0.00
2023-02-14T01:13:15.127Z,0.00
2023-02-14T01:14:15.101Z,0.00
2023-02-14T01:15:15.135Z,0.00
2023-02-14T01:16:15.130Z,0.00
2023-02-14T01:17:15.044Z,0.00
2023-02-14T01:18:15.043Z,0.00
2023-02-14T01:19:15.017Z,0.00
2023-02-14T01:20:15.021Z,0.00
2023-02-14T01:21:14.963Z,0.00
2023-02-14T01:22:14.945Z,0.00
2023-02-14T01:23:14.925Z,0.00
2023-02-14T01:24:14.902Z,0.00
2023-02-14T01:25:14.882Z,0.00
2023-02-14T01:26:14.859Z,0.00
2023-02-14T01:27:14.853Z,0.00
2023-02-14T01:28:14.830Z,0.00
2023-02-14T01:29:14.846Z,0.00
2023-02-14T01:30:14.817Z,0.00
2023-02-14T01:31:14.857Z,0.00
2023-02-14T01:32:14.864Z,0.00
2023-02-14T01:33:14.733Z,0.00
2023-02-14T01:34:14.705Z,0.00
2023-02-14T01:35:14.714Z,0.00
2023-02-14T01:36:14.663Z,0.00
2023-02-14T01:37:14.689Z,0.00
2023-02-14T01:38:14.626Z,0.00
2023-02-14T01:39:14.621Z,0.00
2023-02-14T01:40:14.606Z,0.00
2023-02-14T01:41:14.591Z,0.00
2023-02-14T01:42:14.539Z,0.00
2023-02-14T01:43:14.527Z,0.00
2023-02-14T01:44:14.504Z,0.00
2023-02-14T01:45:14.519Z,0.00
2023-02-14T01:46:14.578Z,0.00
2023-02-14T01:47:14.453Z,0.00
2023-02-14T01:48:14.423Z,0.00
2023-02-14T01:49:14.423Z,0.00
2023-02-14T01:50:14.391Z,0.00
2023-02-14T01:51:14.383Z,0.00
2023-02-14T01:52:14.361Z,0.00
2023-02-14T01:53:14.489Z,0.00
2023-02-14T01:54:14.364Z,0.00
2023-02-14T01:55:14.294Z,0.00
2023-02-14T01:56:14.264Z,0.00
2023-02-14T01:57:14.911Z,0.00
2023-02-14T01:58:14.225Z,0.00
2023-02-14T01:59:14.205Z,0.00
2023-02-14T02:00:14.181Z,0.00
2023-02-14T02:01:14.259Z,0.00
2023-02-14T02:02:14.298Z,0.00
2023-02-14T02:03:14.154Z,0.00
2023-02-14T02:04:14.109Z,0.00
2023-02-14T02:05:14.095Z,0.00
2023-02-14T02:06:14.075Z,0.00
2023-02-14T02:07:14.052Z,0.00
2023-02-14T02:08:14.079Z,0.00
2023-02-14T02:09:14.085Z,0.00
2023-02-14T02:10:13.982Z,0.00
2023-02-14T02:11:13.973Z,0.00
2023-02-14T02:12:13.948Z,0.00
2023-02-14T02:13:13.969Z,0.00
2023-02-14T02:14:13.913Z,0.00
2023-02-14T02:15:13.882Z,0.00
2023-02-14T02:16:13.876Z,0.00
2023-02-14T02:17:13.853Z,0.00
2023-02-14T02:18:13.846Z,0.00
2023-02-14T02:19:13.812Z,0.00
2023-02-14T02:20:13.784Z,0.00
2023-02-14T02:21:13.765Z,0.00
2023-02-14T02:22:13.740Z,0.00
2023-02-14T02:23:13.747Z,0.00
2023-02-14T02:24:13.699Z,0.00
2023-02-14T02:25:13.680Z,0.00
2023-02-14T02:26:13.659Z,0.00
2023-02-14T02:27:13.648Z,0.00
2023-02-14T02:28:13.678Z,0.00
2023-02-14T02:29:13.610Z,0.00
2023-02-14T02:30:13.665Z,0.00
2023-02-14T02:31:13.729Z,0.00
2023-02-14T02:32:13.738Z,0.00
2023-02-14T02:33:13.516Z,0.00
2023-02-14T02:34:13.523Z,0.00
2023-02-14T02:35:13.496Z,0.00
2023-02-14T02:36:13.478Z,0.00
2023-02-14T02:37:13.435Z,0.00
2023-02-14T02:38:13.446Z,0.00
2023-02-14T02:39:13.405Z,0.00
2023-02-14T02:40:13.432Z,0.00
2023-02-14T02:41:13.356Z,0.00
2023-02-14T02:42:13.340Z,0.00
2023-02-14T02:43:13.322Z,0.00
2023-02-14T02:44:13.332Z,0.00
2023-02-14T02:45:13.282Z,0.00
2023-02-14T02:46:13.403Z,0.00
2023-02-14T02:47:13.232Z,0.00
2023-02-14T02:48:13.219Z,0.00
2023-02-14T02:49:13.204Z,0.00
2023-02-14T02:50:13.203Z,0.00
2023-02-14T02:51:13.169Z,0.00
2023-02-14T02:52:13.267Z,0.00
2023-02-14T02:53:13.110Z,0.00
2023-02-14T02:54:13.096Z,0.00
2023-02-14T02:55:13.077Z,0.00
2023-02-14T02:56:13.049Z,0.00
2023-02-14T02:57:13.023Z,0.00
2023-02-14T02:58:13.050Z,0.00
2023-02-14T02:59:12.987Z,0.00
2023-02-14T03:00:12.968Z,0.00
2023-02-14T03:01:12.982Z,0.00
2023-02-14T03:02:12.974Z,0.00
2023-02-14T03:03:12.904Z,0.00
2023-02-14T03:04:12.889Z,0.00
2023-02-14T03:05:12.918Z,0.00
2023-02-14T03:06:12.846Z,0.00
2023-02-14T03:07:12.845Z,0.00
2023-02-14T03:08:12.845Z,0.00
2023-02-14T03:09:12.782Z,0.00
2023-02-14T03:10:12.837Z,0.00
2023-02-14T03:11:12.761Z,0.00
2023-02-14T03:12:12.727Z,0.00
2023-02-14T03:13:12.703Z,0.00
2023-02-14T03:14:12.706Z,0.00
2023-02-14T03:15:12.657Z,0.00
2023-02-14T03:16:12.758Z,0.00
2023-02-14T03:17:12.625Z,0.00
2023-02-14T03:18:12.599Z,0.00
2023-02-14T03:19:12.577Z,0.00
2023-02-14T03:20:12.559Z,0.00
2023-02-14T03:21:12.544Z,0.00
2023-02-14T03:22:12.522Z,0.00
2023-02-14T03:23:12.509Z,0.00
2023-02-14T03:24:12.489Z,0.00
2023-02-14T03:25:12.455Z,0.00
2023-02-14T03:26:12.469Z,0.00
2023-02-14T03:27:12.516Z,0.00
2023-02-14T03:28:12.424Z,0.00
2023-02-14T03:29:12.382Z,0.00
2023-02-14T03:30:12.437Z,0.00
2023-02-14T03:31:12.447Z,0.00
2023-02-14T03:32:12.518Z,0.00
2023-02-14T03:33:12.321Z,0.00
2023-02-14T03:34:12.274Z,0.00
2023-02-14T03:35:12.263Z,0.00
2023-02-14T03:36:12.238Z,0.00
2023-02-14T03:37:12.245Z,0.00
2023-02-14T03:38:12.203Z,0.00
2023-02-14T03:39:12.182Z,0.00
2023-02-14T03:40:12.264Z,0.00
2023-02-14T03:41:12.224Z,0.00
2023-02-14T03:42:12.111Z,0.00
2023-02-14T03:43:12.096Z,0.00
2023-02-14T03:44:12.077Z,0.00
2023-02-14T03:45:12.147Z,0.00
2023-02-14T03:46:12.065Z,0.00
2023-02-14T03:47:12.044Z,0.00
2023-02-14T03:48:11.997Z,0.00
2023-02-14T03:49:11.977Z,0.00
2023-02-14T03:50:12.001Z,0.00
2023-02-14T03:51:11.948Z,0.00
2023-02-14T03:52:11.920Z,0.00
2023-02-14T03:53:11.889Z,0.00
2023-02-14T03:54:11.869Z,0.00
2023-02-14T03:55:11.870Z,0.00
2023-02-14T03:56:11.849Z,0.00
2023-02-14T03:57:11.810Z,0.00
2023-02-14T03:58:11.821Z,0.00
2023-02-14T03:59:11.816Z,0.00
2023-02-14T04:00:11.744Z,0.00
2023-02-14T04:01:11.728Z,0.00
2023-02-14T04:02:11.709Z,0.00
2023-02-14T04:03:11.822Z,0.00
2023-02-14T04:04:11.661Z,0.00
2023-02-14T04:05:11.645Z,0.00
2023-02-14T04:06:11.622Z,0.00
2023-02-14T04:07:11.597Z,0.00
2023-02-14T04:08:11.610Z,0.00
2023-02-14T04:09:11.558Z,0.00
2023-02-14T04:10:11.555Z,0.00
2023-02-14T04:11:11.568Z,0.00
2023-02-14T04:12:11.498Z,0.00
2023-02-14T04:13:11.476Z,0.00
2023-02-14T04:14:11.454Z,0.00
2023-02-14T04:15:11.449Z,0.00
2023-02-14T04:16:11.458Z,0.00
2023-02-14T04:17:11.549Z,0.00
2023-02-14T04:18:11.367Z,0.00
2023-02-14T04:19:11.359Z,0.00
2023-02-14T04:20:11.396Z,0.00
2023-02-14T04:21:11.318Z,0.00
2023-02-14T04:22:11.291Z,0.00
2023-02-14T04:23:11.287Z,0.00
2023-02-14T04:24:11.247Z,0.00
2023-02-14T04:25:11.228Z,0.00
2023-02-14T04:26:11.253Z,0.00
2023-02-14T04:27:11.229Z,0.00
2023-02-14T04:28:11.169Z,0.00
2023-02-14T04:29:11.149Z,0.00
2023-02-14T04:30:11.194Z,0.00
2023-02-14T04:31:11.277Z,0.00
2023-02-14T04:32:11.253Z,0.00
2023-02-14T04:33:11.104Z,0.00
2023-02-14T04:34:11.038Z,0.00
2023-02-14T04:35:11.026Z,0.00
2023-02-14T04:36:10.999Z,0.00
2023-02-14T04:37:10.978Z,0.00
2023-02-14T04:38:10.998Z,0.00
2023-02-14T04:39:10.932Z,0.00
2023-02-14T04:40:10.924Z,0.00
2023-02-14T04:41:10.894Z,0.00
2023-02-14T04:42:10.901Z,0.00
2023-02-14T04:43:10.845Z,0.00
2023-02-14T04:44:10.862Z,0.00
2023-02-14T04:45:10.840Z,0.00
2023-02-14T04:46:10.811Z,0.00
2023-02-14T04:47:10.795Z,0.00
2023-02-14T04:48:10.747Z,0.00
2023-02-14T04:49:10.724Z,0.00
2023-02-14T04:50:10.754Z,0.00
2023-02-14T04:51:10.681Z,0.00
2023-02-14T04:52:10.665Z,0.00
2023-02-14T04:53:10.666Z,0.00
2023-02-14T04:54:10.617Z,0.00
2023-02-14T04:55:10.596Z,0.00
2023-02-14T04:56:10.576Z,0.00
2023-02-14T04:57:10.558Z,0.00
2023-02-14T04:58:10.563Z,0.00
2023-02-14T04:59:10.522Z,0.00
2023-02-14T05:00:10.498Z,0.00
2023-02-14T05:01:10.508Z,0.00
2023-02-14T05:02:10.512Z,0.00
2023-02-14T05:03:10.453Z,0.00
2023-02-14T05:04:10.454Z,0.00
2023-02-14T05:05:10.388Z,0.00
2023-02-14T05:06:10.422Z,0.00
2023-02-14T05:07:10.392Z,0.00
2023-02-14T05:08:10.391Z,0.00
2023-02-14T05:09:10.306Z,0.00
2023-02-14T05:10:10.301Z,0.00
2023-02-14T05:11:10.257Z,0.00
2023-02-14T05:12:10.294Z,0.00
2023-02-14T05:13:10.214Z,0.00
2023-02-14T05:14:10.217Z,0.00
2023-02-14T05:15:10.235Z,0.00
2023-02-14T05:16:10.216Z,0.00
2023-02-14T05:17:10.201Z,0.00
2023-02-14T05:18:10.142Z,0.00
2023-02-14T05:19:10.110Z,0.00
2023-02-14T05:20:10.106Z,0.00
2023-02-14T05:21:10.048Z,0.00
2023-02-14T05:22:10.031Z,0.00
2023-02-14T05:23:10.001Z,0.00
2023-02-14T05:24:09.986Z,0.00
2023-02-14T05:25:09.970Z,0.00
2023-02-14T05:26:09.947Z,0.00
2023-02-14T05:27:09.918Z,0.00
2023-02-14T05:28:09.904Z,0.00
2023-02-14T05:29:09.908Z,0.00
2023-02-14T05:30:09.952Z,0.00
2023-02-14T05:31:09.934Z,0.00
2023-02-14T05:32:09.875Z,0.00
2023-02-14T05:33:09.841Z,0.00
2023-02-14T05:34:09.826Z,0.00
2023-02-14T05:35:09.786Z,0.00
2023-02-14T05:36:09.735Z,0.00
2023-02-14T05:37:09.708Z,0.00
2023-02-14T05:38:09.692Z,0.00
2023-02-14T05:39:09.668Z,0.00
2023-02-14T05:40:09.679Z,0.00
2023-02-14T05:41:09.626Z,0.00
2023-02-14T05:42:09.609Z,0.00
2023-02-14T05:43:09.585Z,0.00
2023-02-14T05:44:09.588Z,0.00
2023-02-14T05:45:09.544Z,0.00
2023-02-14T05:46:09.776Z,0.00
2023-02-14T05:47:11.570Z,0.00
2023-02-14T05:48:09.483Z,0.00
2023-02-14T05:49:09.482Z,0.00
2023-02-14T05:50:09.461Z,0.00
2023-02-14T05:51:09.418Z,0.00
2023-02-14T05:52:09.404Z,0.00
2023-02-14T05:53:09.377Z,0.00
2023-02-14T05:54:10.927Z,0.00
2023-02-14T05:55:09.361Z,0.00
2023-02-14T05:56:09.333Z,0.00
2023-02-14T05:57:09.295Z,0.00
2023-02-14T05:58:09.273Z,0.00
2023-02-14T05:59:09.284Z,0.00
2023-02-14T06:00:09.247Z,0.00
2023-02-14T06:01:09.247Z,0.00
2023-02-14T06:02:09.342Z,0.00
2023-02-14T06:03:09.187Z,0.00
2023-02-14T06:04:09.203Z,0.00
2023-02-14T06:05:09.177Z,0.00
2023-02-14T06:06:09.102Z,0.00
2023-02-14T06:07:09.083Z,0.00
2023-02-14T06:08:09.063Z,0.00
2023-02-14T06:09:09.043Z,0.00
2023-02-14T06:10:09.023Z,0.00
2023-02-14T06:11:09.009Z,0.00
2023-02-14T06:12:08.979Z,0.00
2023-02-14T06:13:09.034Z,0.00
2023-02-14T06:14:08.941Z,0.00
2023-02-14T06:15:08.914Z,0.00
2023-02-14T06:16:08.929Z,0.00
2023-02-14T06:17:08.912Z,0.00
2023-02-14T06:18:08.852Z,0.00
2023-02-14T06:19:08.835Z,0.00
2023-02-14T06:20:08.808Z,0.00
2023-02-14T06:21:08.795Z,0.00
2023-02-14T06:22:08.859Z,0.00
2023-02-14T06:23:08.749Z,0.00
2023-02-14T06:24:08.722Z,0.00
2023-02-14T06:25:08.713Z,0.00
2023-02-14T06:26:08.681Z,0.00
2023-02-14T06:27:08.675Z,0.00
2023-02-14T06:28:08.641Z,0.00
2023-02-14T06:29:08.618Z,0.00
2023-02-14T06:30:08.624Z,0.00
2023-02-14T06:31:08.702Z,0.00
2023-02-14T06:32:08.673Z,0.00
2023-02-14T06:33:08.560Z,0.00
2023-02-14T06:34:08.509Z,0.00
2023-02-14T06:35:08.539Z,0.00
2023-02-14T06:36:08.474Z,0.00
2023-02-14T06:37:08.446Z,0.00
2023-02-14T06:38:08.459Z,0.00
2023-02-14T06:39:08.471Z,0.00
2023-02-14T06:40:08.384Z,0.00
2023-02-14T06:41:08.357Z,0.00
2023-02-14T06:42:08.346Z,0.00
2023-02-14T06:43:08.322Z,0.00
2023-02-14T06:44:08.308Z,0.00
2023-02-14T06:45:08.274Z,0.00
2023-02-14T06:46:08.323Z,0.00
2023-02-14T06:47:08.246Z,0.00
2023-02-14T06:48:08.214Z,0.00
2023-02-14T06:49:08.216Z,5.63
2023-02-14T06:50:08.170Z,5.63
2023-02-14T06:51:08.175Z,5.63
2023-02-14T06:52:08.127Z,5.63
2023-02-14T06:53:08.106Z,5.63
2023-02-14T06:54:08.084Z,5.63
2023-02-14T06:55:08.060Z,5.63
2023-02-14T06:56:08.076Z,5.63
2023-02-14T06:57:08.035Z,5.63
2023-02-14T06:58:08.023Z,5.63
2023-02-14T06:59:07.974Z,5.63
2023-02-14T07:00:07.954Z,5.63
2023-02-14T07:01:07.940Z,11.25
2023-02-14T07:02:07.942Z,11.25
2023-02-14T07:03:07.887Z,11.25
2023-02-14T07:04:07.879Z,11.25
2023-02-14T07:05:07.849Z,11.25
2023-02-14T07:06:07.845Z,11.25
2023-02-14T07:07:07.830Z,11.25
2023-02-14T07:08:07.785Z,11.25
2023-02-14T07:09:07.774Z,11.25
2023-02-14T07:10:07.744Z,16.88
2023-02-14T07:11:07.730Z,16.88
2023-02-14T07:12:07.719Z,16.88
2023-02-14T07:13:07.737Z,16.88
2023-02-14T07:14:07.656Z,16.88
2023-02-14T07:15:07.638Z,16.88
2023-02-14T07:16:07.687Z,16.88
2023-02-14T07:17:07.611Z,16.88
2023-02-14T07:18:07.581Z,16.88
2023-02-14T07:19:07.558Z,16.88
2023-02-14T07:20:07.541Z,16.88
2023-02-14T07:21:07.507Z,22.50
2023-02-14T07:22:07.489Z,22.50
2023-02-14T07:23:07.466Z,22.50
2023-02-14T07:24:07.452Z,22.50
2023-02-14T07:25:07.423Z,22.50
2023-02-14T07:26:07.400Z,22.50
2023-02-14T07:27:07.402Z,22.50
2023-02-14T07:28:07.367Z,22.50
2023-02-14T07:29:07.370Z,22.50
2023-02-14T07:30:07.364Z,22.50
2023-02-14T07:31:07.434Z,22.50
2023-02-14T07:32:07.448Z,28.13
2023-02-14T07:33:07.250Z,28.13
2023-02-14T07:34:07.235Z,28.13
2023-02-14T07:35:07.237Z,28.13
2023-02-14T07:36:07.219Z,28.13
2023-02-14T07:37:07.204Z,28.13
2023-02-14T07:38:07.158Z,28.13
2023-02-14T07:39:07.126Z,28.13
2023-02-14T07:40:12.485Z,28.13
2023-02-14T07:41:07.092Z,28.13
2023-02-14T07:42:07.069Z,28.13
2023-02-14T07:43:07.037Z,28.13
2023-02-14T07:44:07.022Z,28.13
2023-02-14T07:45:20.770Z,33.75
2023-02-14T07:46:07.049Z,33.75
2023-02-14T07:47:06.959Z,33.75
2023-02-14T07:48:06.939Z,33.75
2023-02-14T07:49:06.924Z,33.75
2023-02-14T07:50:06.891Z,33.75
2023-02-14T07:51:06.898Z,33.75
2023-02-14T07:52:06.881Z,33.75
2023-02-14T07:53:06.975Z,33.75
2023-02-14T07:54:06.940Z,33.75
2023-02-14T07:55:06.788Z,33.75
2023-02-14T07:56:06.785Z,33.75
2023-02-14T07:57:06.776Z,33.75
2023-02-14T07:58:06.731Z,33.75
2023-02-14T07:59:06.760Z,33.75
2023-02-14T08:00:06.728Z,39.38
2023-02-14T08:01:06.731Z,39.38
2023-02-14T08:02:06.646Z,39.38
2023-02-14T08:03:06.712Z,39.38
2023-02-14T08:04:06.603Z,39.38
2023-02-14T08:05:06.619Z,39.38
2023-02-14T08:06:06.593Z,39.38
2023-02-14T08:07:06.536Z,39.38
2023-02-14T08:08:06.560Z,39.38
2023-02-14T08:09:06.498Z,39.38
2023-02-14T08:10:06.480Z,39.38
2023-02-14T08:11:06.506Z,39.38
2023-02-14T08:12:06.434Z,39.38
2023-02-14T08:13:06.419Z,39.38
2023-02-14T08:14:06.396Z,39.38
2023-02-14T08:15:06.374Z,39.38
2023-02-14T08:16:06.672Z,39.38
2023-02-14T08:17:06.359Z,39.38
2023-02-14T08:18:06.321Z,39.38
2023-02-14T08:19:06.293Z,45.00
2023-02-14T08:20:06.269Z,45.00
2023-02-14T08:21:06.283Z,45.00
2023-02-14T08:22:06.224Z,45.00
2023-02-14T08:23:06.199Z,45.00
2023-02-14T08:24:06.223Z,45.00
2023-02-14T08:25:06.194Z,45.00
2023-02-14T08:26:06.174Z,45.00
2023-02-14T08:27:06.118Z,45.00
2023-02-14T08:28:06.101Z,45.00
2023-02-14T08:29:06.073Z,45.00
2023-02-14T08:30:06.081Z,45.00
2023-02-14T08:31:06.102Z,45.00
2023-02-14T08:32:06.150Z,45.00
2023-02-14T08:33:05.995Z,45.00
2023-02-14T08:34:05.979Z,45.00
2023-02-14T08:35:05.959Z,45.00
2023-02-14T08:36:05.941Z,45.00
2023-02-14T08:37:05.991Z,45.00
2023-02-14T08:38:05.895Z,45.00
2023-02-14T08:39:05.878Z,45.00
2023-02-14T08:40:05.891Z,50.63
2023-02-14T08:41:08.504Z,50.63
2023-02-14T08:42:05.820Z,50.63
2023-02-14T08:43:05.837Z,50.63
2023-02-14T08:44:05.796Z,50.63
2023-02-14T08:45:05.758Z,50.63
2023-02-14T08:46:05.907Z,50.63
2023-02-14T08:47:05.758Z,50.63
2023-02-14T08:48:05.735Z,50.63
2023-02-14T08:49:05.673Z,50.63
2023-02-14T08:50:05.661Z,50.63
2023-02-14T08:51:05.639Z,50.63
2023-02-14T08:52:05.650Z,50.63
2023-02-14T08:53:05.595Z,50.63
2023-02-14T08:54:05.609Z,50.63
2023-02-14T08:55:05.552Z,50.63
2023-02-14T08:56:05.533Z,50.63
2023-02-14T08:57:05.661Z,50.63
2023-02-14T08:58:05.574Z,56.25
2023-02-14T08:59:05.595Z,56.25
2023-02-14T09:00:05.474Z,56.25
2023-02-14T09:01:05.499Z,56.25
2023-02-14T09:02:05.468Z,56.25
2023-02-14T09:03:05.415Z,56.25
2023-02-14T09:04:05.453Z,56.25
2023-02-14T09:05:05.346Z,56.25
2023-02-14T09:06:05.356Z,56.25
2023-02-14T09:07:05.318Z,56.25
2023-02-14T09:08:05.332Z,56.25
2023-02-14T09:09:05.282Z,61.88
2023-02-14T09:10:05.251Z,61.88
2023-02-14T09:11:05.282Z,61.88
2023-02-14T09:12:05.226Z,61.88
2023-02-14T09:13:05.184Z,61.88
2023-02-14T09:14:05.217Z,61.88
2023-02-14T09:15:05.219Z,61.88
2023-02-14T09:16:05.263Z,61.88
2023-02-14T09:17:05.225Z,61.88
2023-02-14T09:18:05.165Z,61.88
2023-02-14T09:19:05.090Z,61.88
2023-02-14T09:20:05.073Z,61.88
2023-02-14T09:21:05.027Z,61.88
2023-02-14T09:22:05.031Z,61.88
2023-02-14T09:23:05.013Z,61.88
2023-02-14T09:24:05.007Z,61.88
2023-02-14T09:25:04.947Z,61.88
2023-02-14T09:26:04.933Z,61.88
2023-02-14T09:27:04.910Z,61.88
2023-02-14T09:28:04.891Z,61.88
2023-02-14T09:29:04.866Z,61.88
2023-02-14T09:30:04.871Z,61.88
2023-02-14T09:31:04.900Z,61.88
2023-02-14T09:32:04.972Z,61.88
2023-02-14T09:33:04.783Z,61.88
2023-02-14T09:34:04.779Z,61.88
2023-02-14T09:35:04.744Z,61.88
2023-02-14T09:36:04.729Z,61.88
2023-02-14T09:37:06.423Z,61.88
2023-02-14T09:38:04.748Z,61.88
2023-02-14T09:39:04.672Z,56.25
2023-02-14T09:40:04.666Z,56.25
2023-02-14T09:41:04.628Z,56.25
2023-02-14T09:42:04.608Z,56.25
2023-02-14T09:43:04.604Z,56.25
2023-02-14T09:44:04.603Z,56.25
2023-02-14T09:45:04.551Z,61.88
2023-02-14T09:46:04.622Z,61.88
2023-02-14T09:47:04.508Z,56.25
2023-02-14T09:48:04.508Z,56.25
2023-02-14T09:49:04.532Z,56.25
2023-02-14T09:50:04.563Z,56.25
2023-02-14T09:51:04.430Z,56.25
2023-02-14T09:52:04.423Z,56.25
2023-02-14T09:53:04.398Z,56.25
2023-02-14T09:54:04.378Z,56.25
2023-02-14T09:55:04.356Z,56.25
2023-02-14T09:56:04.338Z,56.25
2023-02-14T09:57:04.314Z,61.88
2023-02-14T09:58:04.291Z,61.88
2023-02-14T09:59:04.271Z,61.88
2023-02-14T10:00:04.256Z,61.88
2023-02-14T10:01:04.406Z,61.88
2023-02-14T10:02:04.261Z,61.88
2023-02-14T10:03:04.195Z,61.88
2023-02-14T10:04:04.180Z,61.88
2023-02-14T10:05:04.154Z,61.88
2023-02-14T10:06:04.139Z,61.88
2023-02-14T10:07:04.137Z,61.88
2023-02-14T10:08:04.112Z,61.88
2023-02-14T10:09:04.112Z,61.88
2023-02-14T10:10:04.064Z,61.88
2023-02-14T10:11:04.072Z,61.88
2023-02-14T10:12:04.027Z,61.88
2023-02-14T10:13:04.010Z,61.88
2023-02-14T10:14:04.000Z,61.88
2023-02-14T10:15:03.961Z,61.88
2023-02-14T10:16:03.952Z,61.88
2023-02-14T10:17:03.931Z,61.88
2023-02-14T10:18:03.944Z,61.88
2023-02-14T10:19:03.957Z,61.88
2023-02-14T10:20:03.877Z,61.88
2023-02-14T10:21:03.849Z,61.88
2023-02-14T10:22:03.837Z,61.88
2023-02-14T10:23:03.807Z,61.88
2023-02-14T10:24:03.789Z,61.88
2023-02-14T10:25:03.783Z,61.88
2023-02-14T10:26:03.755Z,61.88
2023-02-14T10:27:09.861Z,61.88
2023-02-14T10:28:03.724Z,61.88
2023-02-14T10:29:03.697Z,61.88
2023-02-14T10:30:03.787Z,61.88
2023-02-14T10:31:03.898Z,61.88
2023-02-14T10:32:03.721Z,61.88
2023-02-14T10:33:03.630Z,61.88
2023-02-14T10:34:03.599Z,67.50
2023-02-14T10:35:03.645Z,67.50
2023-02-14T10:36:03.571Z,67.50
2023-02-14T10:37:03.550Z,67.50
2023-02-14T10:38:03.529Z,67.50
2023-02-14T10:39:03.513Z,67.50
2023-02-14T10:40:03.488Z,67.50
2023-02-14T10:41:03.493Z,67.50
2023-02-14T10:42:03.451Z,67.50
2023-02-14T10:43:03.424Z,67.50
2023-02-14T10:44:03.409Z,67.50
2023-02-14T10:45:03.391Z,67.50
2023-02-14T10:46:03.443Z,67.50
2023-02-14T10:47:03.359Z,67.50
2023-02-14T10:48:03.336Z,67.50
2023-02-14T10:49:03.316Z,67.50
2023-02-14T10:50:03.337Z,67.50
2023-02-14T10:51:03.324Z,67.50
2023-02-14T10:52:03.294Z,67.50
2023-02-14T10:53:03.237Z,67.50
2023-02-14T10:54:03.257Z,67.50
2023-02-14T10:55:03.202Z,67.50
2023-02-14T10:56:03.227Z,67.50
2023-02-14T10:57:03.174Z,67.50
2023-02-14T10:58:03.152Z,67.50
2023-02-14T10:59:03.134Z,67.50
2023-02-14T11:00:03.185Z,67.50
2023-02-14T11:01:03.602Z,67.50
2023-02-14T11:02:03.145Z,67.50
2023-02-14T11:03:03.071Z,67.50
2023-02-14T11:04:03.071Z,67.50
2023-02-14T11:05:03.265Z,67.50
2023-02-14T11:06:03.007Z,67.50
2023-02-14T11:07:02.996Z,67.50
2023-02-14T11:08:02.964Z,67.50
2023-02-14T11:09:02.946Z,67.50
2023-02-14T11:10:02.953Z,67.50
2023-02-14T11:11:03.222Z,67.50
2023-02-14T11:12:03.000Z,73.13
2023-02-14T11:13:02.878Z,73.13
2023-02-14T11:14:02.849Z,67.50
2023-02-14T11:15:02.835Z,67.50
2023-02-14T11:16:03.336Z,67.50
2023-02-14T11:17:02.800Z,73.13
2023-02-14T11:18:02.778Z,73.13
2023-02-14T11:19:02.759Z,73.13
2023-02-14T11:20:02.740Z,73.13
2023-02-14T11:21:02.757Z,73.13
2023-02-14T11:22:02.741Z,73.13
2023-02-14T11:23:02.690Z,73.13
2023-02-14T11:24:02.678Z,73.13
2023-02-14T11:25:04.434Z,73.13
2023-02-14T11:26:02.629Z,73.13
2023-02-14T11:27:02.613Z,73.13
2023-02-14T11:28:02.632Z,73.13
2023-02-14T11:29:02.621Z,78.75
2023-02-14T11:30:02.617Z,73.13
2023-02-14T11:31:03.096Z,73.13
2023-02-14T11:32:02.518Z,73.13
2023-02-14T11:33:02.504Z,73.13
2023-02-14T11:34:04.782Z,78.75
2023-02-14T11:35:02.472Z,78.75
2023-02-14T11:36:02.455Z,78.75
2023-02-14T11:37:03.121Z,78.75
2023-02-14T11:38:02.420Z,73.13
2023-02-14T11:39:02.390Z,73.13
2023-02-14T11:40:02.373Z,73.13
2023-02-14T11:41:02.493Z,73.13
2023-02-14T11:42:02.342Z,73.13
2023-02-14T11:43:15.035Z,73.13
2023-02-14T11:44:02.298Z,73.13
2023-02-14T11:45:02.302Z,73.13
2023-02-14T11:46:02.310Z,73.13
2023-02-14T11:47:03.828Z,73.13
2023-02-14T11:48:02.258Z,73.13
2023-02-14T11:49:02.278Z,73.13
2023-02-14T11:50:02.206Z,73.13
2023-02-14T11:51:02.222Z,73.13
2023-02-14T11:52:02.205Z,67.50
2023-02-14T11:53:02.150Z,73.13
2023-02-14T11:54:02.142Z,73.13
2023-02-14T11:55:02.115Z,73.13
2023-02-14T11:56:02.102Z,73.13
2023-02-14T11:57:02.104Z,78.75
2023-02-14T11:58:02.052Z,84.38
2023-02-14T11:59:02.050Z,84.38
2023-02-14T12:00:02.027Z,84.38
2023-02-14T12:01:02.283Z,95.63
2023-02-14T12:02:02.025Z,118.13
2023-02-14T12:03:02.002Z,123.75
2023-02-14T12:04:02.319Z,123.75
2023-02-14T12:05:01.965Z,123.75
2023-02-14T12:06:01.919Z,118.13
2023-02-14T12:07:01.899Z,106.88
2023-02-14T12:08:01.891Z,106.88
2023-02-14T12:09:02.065Z,118.13
2023-02-14T12:10:01.851Z,129.38
2023-02-14T12:11:02.013Z,123.75
2023-02-14T12:12:01.856Z,129.38
2023-02-14T12:13:01.810Z,135.00
2023-02-14T12:14:01.785Z,146.25
2023-02-14T12:15:01.802Z,151.88
2023-02-14T12:16:01.853Z,135.00
2023-02-14T12:17:01.739Z,118.13
2023-02-14T12:18:01.721Z,112.50
2023-02-14T12:19:01.707Z,112.50
2023-02-14T12:20:01.723Z,101.25
2023-02-14T12:21:02.016Z,101.25
2023-02-14T12:22:01.654Z,106.88
2023-02-14T12:23:01.670Z,112.50
2023-02-14T12:24:01.627Z,106.88
2023-02-14T12:25:01.657Z,118.13
2023-02-14T12:26:01.592Z,123.75
2023-02-14T12:27:01.578Z,129.38
2023-02-14T12:28:01.564Z,135.00
2023-02-14T12:29:01.548Z,129.38
2023-02-14T12:30:01.600Z,129.38
2023-02-14T12:31:01.974Z,140.63
2023-02-14T12:32:01.700Z,140.63
2023-02-14T12:33:01.514Z,123.75
2023-02-14T12:34:01.498Z,112.50
2023-02-14T12:35:01.452Z,112.50
2023-02-14T12:36:01.435Z,123.75
2023-02-14T12:37:01.442Z,123.75
2023-02-14T12:38:04.757Z,123.75
2023-02-14T12:39:01.393Z,112.50
2023-02-14T12:40:01.377Z,106.88
2023-02-14T12:41:01.794Z,112.50
2023-02-14T12:42:01.376Z,112.50
2023-02-14T12:43:01.349Z,106.88
2023-02-14T12:44:01.325Z,101.25
2023-02-14T12:45:01.308Z,101.25
2023-02-14T12:46:01.621Z,101.25
2023-02-14T12:47:01.316Z,106.88
2023-02-14T12:48:01.273Z,106.88
2023-02-14T12:49:01.282Z,112.50
2023-02-14T12:50:01.253Z,112.50
2023-02-14T12:51:01.441Z,112.50
2023-02-14T12:52:01.207Z,106.88
2023-02-14T12:53:01.344Z,95.63
2023-02-14T12:54:01.181Z,84.38
2023-02-14T12:55:01.220Z,78.75
2023-02-14T12:56:01.161Z,73.13
2023-02-14T12:57:01.150Z,67.50
2023-02-14T12:58:01.121Z,73.13
2023-02-14T12:59:01.118Z,84.38
2023-02-14T13:00:01.108Z,90.00
2023-02-14T13:01:01.456Z,90.00
2023-02-14T13:02:01.076Z,84.38
2023-02-14T13:03:01.085Z,78.75
2023-02-14T13:04:01.042Z,78.75